createdAt,value
2018-11-03T00:00:00.443Z,0
2018-11-03T00:01:01.784Z,0
2018-11-03T00:02:03.147Z,0
2018-11-03T00:03:05.337Z,0
2018-11-03T00:04:06.687Z,0
2018-11-03T00:05:08.052Z,0
2018-11-03T00:06:09.403Z,0
2018-11-03T00:07:10.811Z,0
2018-11-03T00:08:12.127Z,0
2018-11-03T00:09:13.487Z,0
2018-11-03T00:10:14.865Z,0
2018-11-03T00:11:16.199Z,0
2018-11-03T00:12:17.544Z,0
2018-11-03T00:13:18.897Z,0
2018-11-03T00:14:20.263Z,0
2018-11-03T00:15:22.567Z,0
2018-11-03T00:16:23.914Z,0
2018-11-03T00:17:25.275Z,0
2018-11-03T00:18:27.292Z,0
2018-11-03T00:19:28.660Z,0
2018-11-03T00:20:30.015Z,0
2018-11-03T00:21:31.370Z,0
2018-11-03T00:22:32.705Z,0
2018-11-03T00:23:34.990Z,0
2018-11-03T00:24:36.348Z,0
2018-11-03T00:25:37.702Z,0
2018-11-03T00:26:39.059Z,0
2018-11-03T00:27:40.438Z,0
2018-11-03T00:28:41.803Z,0
2018-11-03T00:29:43.163Z,0
2018-11-03T00:30:44.519Z,0
2018-11-03T00:31:45.863Z,0
2018-11-03T00:32:47.216Z,0
2018-11-03T00:33:49.052Z,0
2018-11-03T00:34:50.408Z,0
2018-11-03T00:35:52.554Z,0
2018-11-03T00:36:53.906Z,0
2018-11-03T00:37:55.258Z,0
2018-11-03T00:38:57.269Z,0
2018-11-03T00:39:58.623Z,0
2018-11-03T00:40:59.972Z,0
2018-11-03T00:42:01.334Z,0
2018-11-03T00:43:02.690Z,0
2018-11-03T00:44:04.043Z,0
2018-11-03T00:45:05.394Z,0
2018-11-03T00:46:06.751Z,0
2018-11-03T00:47:08.059Z,0
2018-11-03T00:48:09.443Z,0
2018-11-03T00:49:10.778Z,0
2018-11-03T00:50:12.134Z,0
2018-11-03T00:51:13.514Z,0
2018-11-03T00:52:14.864Z,0
2018-11-03T00:53:16.233Z,0
2018-11-03T00:54:17.599Z,0
2018-11-03T00:55:18.950Z,0
2018-11-03T00:56:20.305Z,0
2018-11-03T00:57:21.684Z,0
2018-11-03T00:58:23.744Z,0
2018-11-03T00:59:25.785Z,0
2018-11-03T01:00:27.150Z,0
2018-11-03T01:01:28.515Z,0
2018-11-03T01:02:29.865Z,0
2018-11-03T01:03:31.212Z,0
2018-11-03T01:04:32.572Z,0
2018-11-03T01:05:33.932Z,0
2018-11-03T01:06:35.278Z,0
2018-11-03T01:07:36.642Z,0
2018-11-03T01:08:37.990Z,0
2018-11-03T01:09:39.378Z,0
2018-11-03T01:10:40.728Z,0
2018-11-03T01:11:42.082Z,0
2018-11-03T01:12:43.402Z,0
2018-11-03T01:13:44.752Z,0
2018-11-03T01:14:46.107Z,0
2018-11-03T01:15:47.471Z,0
2018-11-03T01:16:48.841Z,0
2018-11-03T01:17:50.189Z,0
2018-11-03T01:18:52.308Z,0
2018-11-03T01:19:53.682Z,0
2018-11-03T01:20:55.032Z,0
2018-11-03T01:21:56.372Z,0
2018-11-03T01:22:57.730Z,0
2018-11-03T01:23:59.087Z,0
2018-11-03T01:25:00.443Z,0
2018-11-03T01:26:01.755Z,0
2018-11-03T01:27:04.035Z,0
2018-11-03T01:28:05.383Z,0
2018-11-03T01:29:06.735Z,0
2018-11-03T01:30:08.090Z,0
2018-11-03T01:31:09.449Z,0
2018-11-03T01:32:10.824Z,0
2018-11-03T01:33:12.169Z,0
2018-11-03T01:34:13.525Z,0
2018-11-03T01:35:14.874Z,0
2018-11-03T01:36:16.233Z,0
2018-11-03T01:37:17.584Z,0
2018-11-03T01:38:18.954Z,0
2018-11-03T01:39:20.275Z,0
2018-11-03T01:40:32.035Z,0
2018-11-03T01:41:33.349Z,0
2018-11-03T01:42:34.708Z,0
2018-11-03T01:43:36.054Z,0
2018-11-03T01:44:37.418Z,0
2018-11-03T01:45:38.770Z,0
2018-11-03T01:46:40.119Z,0
2018-11-03T01:47:41.494Z,0
2018-11-03T01:48:42.853Z,0
2018-11-03T01:49:44.209Z,0
2018-11-03T01:50:45.550Z,0
2018-11-03T01:51:46.906Z,0
2018-11-03T01:52:48.259Z,0
2018-11-03T01:53:49.635Z,0
2018-11-03T01:54:51.023Z,0
2018-11-03T01:55:52.334Z,0
2018-11-03T01:56:53.683Z,0
2018-11-03T01:57:55.062Z,0
2018-11-03T01:58:56.413Z,0
2018-11-03T01:59:57.818Z,0
2018-11-03T02:00:59.135Z,0
2018-11-03T02:02:01.056Z,0
2018-11-03T02:03:03.030Z,0
2018-11-03T02:04:04.381Z,0
2018-11-03T02:05:05.736Z,0
2018-11-03T02:06:07.089Z,0
2018-11-03T02:07:08.413Z,0
2018-11-03T02:08:10.410Z,0
2018-11-03T02:09:11.765Z,0
2018-11-03T02:10:13.106Z,0
2018-11-03T02:11:14.460Z,0
2018-11-03T02:12:15.810Z,0
2018-11-03T02:13:17.176Z,0
2018-11-03T02:14:18.531Z,0
2018-11-03T02:15:19.880Z,0
2018-11-03T02:16:22.078Z,0
2018-11-03T02:17:23.429Z,0
2018-11-03T02:18:24.783Z,0
2018-11-03T02:19:26.141Z,0
2018-11-03T02:20:27.512Z,0
2018-11-03T02:21:28.874Z,0
2018-11-03T02:22:30.167Z,0
2018-11-03T02:23:31.529Z,0
2018-11-03T02:24:32.875Z,0
2018-11-03T02:25:35.044Z,0
2018-11-03T02:26:36.381Z,0
2018-11-03T02:27:37.738Z,0
2018-11-03T02:28:39.099Z,0
2018-11-03T02:29:40.459Z,0
2018-11-03T02:30:42.490Z,0
2018-11-03T02:31:43.844Z,0
2018-11-03T02:32:45.196Z,0
2018-11-03T02:33:48.409Z,0
2018-11-03T02:34:51.624Z,0
2018-11-03T02:35:52.980Z,0
2018-11-03T02:36:54.320Z,0
2018-11-03T02:37:55.685Z,0
2018-11-03T02:38:57.065Z,0
2018-11-03T02:39:58.406Z,0
2018-11-03T02:40:59.759Z,0
2018-11-03T02:42:01.124Z,0
2018-11-03T02:43:02.481Z,0
2018-11-03T02:44:03.824Z,0
2018-11-03T02:45:05.945Z,0
2018-11-03T02:46:07.320Z,0
2018-11-03T02:47:09.345Z,0
2018-11-03T02:48:10.769Z,0
2018-11-03T02:49:12.121Z,0
2018-11-03T02:50:13.615Z,0
2018-11-03T02:51:14.896Z,0
2018-11-03T02:52:16.244Z,0
2018-11-03T02:53:17.600Z,0
2018-11-03T02:54:18.954Z,0
2018-11-03T02:55:20.299Z,0
2018-11-03T02:56:21.664Z,0
2018-11-03T02:57:23.008Z,0
2018-11-03T02:58:24.365Z,0
2018-11-03T02:59:25.719Z,0
2018-11-03T03:00:27.740Z,0
2018-11-03T03:01:29.054Z,0
2018-11-03T03:02:30.401Z,0
2018-11-03T03:03:31.780Z,0
2018-11-03T03:04:33.130Z,0
2018-11-03T03:05:34.485Z,0
2018-11-03T03:06:35.824Z,0
2018-11-03T03:07:37.184Z,0
2018-11-03T03:08:38.536Z,0
2018-11-03T03:09:40.502Z,0
2018-11-03T03:10:41.860Z,0
2018-11-03T03:11:43.210Z,0
2018-11-03T03:12:44.561Z,0
2018-11-03T03:13:45.914Z,0
2018-11-03T03:14:47.232Z,0
2018-11-03T03:15:48.587Z,0
2018-11-03T03:16:49.944Z,0
2018-11-03T03:17:51.313Z,0
2018-11-03T03:18:52.664Z,0
2018-11-03T03:19:54.027Z,0
2018-11-03T03:20:55.443Z,0
2018-11-03T03:21:56.773Z,0
2018-11-03T03:22:58.139Z,0
2018-11-03T03:23:59.481Z,0
2018-11-03T03:25:00.836Z,0
2018-11-03T03:26:02.234Z,0
2018-11-03T03:27:03.595Z,0
2018-11-03T03:28:04.948Z,0
2018-11-03T03:29:06.539Z,0
2018-11-03T03:30:07.680Z,0
2018-11-03T03:31:09.042Z,0
2018-11-03T03:32:10.401Z,0
2018-11-03T03:33:12.307Z,0
2018-11-03T03:34:13.669Z,0
2018-11-03T03:35:15.930Z,0
2018-11-03T03:36:17.280Z,0
2018-11-03T03:37:18.630Z,0
2018-11-03T03:38:19.971Z,0
2018-11-03T03:39:21.329Z,0
2018-11-03T03:40:23.359Z,0
2018-11-03T03:41:24.713Z,0
2018-11-03T03:42:26.065Z,0
2018-11-03T03:43:27.420Z,0
2018-11-03T03:44:28.769Z,0
2018-11-03T03:45:30.124Z,0
2018-11-03T03:46:32.455Z,0
2018-11-03T03:47:33.807Z,0
2018-11-03T03:48:35.160Z,0
2018-11-03T03:49:36.536Z,0
2018-11-03T03:50:37.872Z,0
2018-11-03T03:51:39.228Z,0
2018-11-03T03:52:40.582Z,0
2018-11-03T03:54:21.441Z,0
2018-11-03T03:55:22.785Z,0
2018-11-03T03:56:44.249Z,0
2018-11-03T03:57:45.602Z,0
2018-11-03T03:59:07.062Z,0
2018-11-03T04:00:08.415Z,0
2018-11-03T04:01:09.768Z,0
2018-11-03T04:02:11.109Z,0
2018-11-03T04:03:12.463Z,0
2018-11-03T04:04:13.812Z,0
2018-11-03T04:05:15.240Z,0
2018-11-03T04:06:16.601Z,0
2018-11-03T04:07:17.951Z,0
2018-11-03T04:08:19.296Z,0
2018-11-03T04:09:20.655Z,0
2018-11-03T04:10:21.966Z,0
2018-11-03T04:11:24.152Z,0
2018-11-03T04:12:25.509Z,0
2018-11-03T04:13:26.859Z,0
2018-11-03T04:14:28.210Z,0
2018-11-03T04:15:29.560Z,0
2018-11-03T04:16:30.919Z,0
2018-11-03T04:17:32.266Z,0
2018-11-03T04:18:33.606Z,0
2018-11-03T04:19:34.961Z,0
2018-11-03T04:20:36.320Z,0
2018-11-03T04:21:37.670Z,0
2018-11-03T04:22:38.984Z,0
2018-11-03T04:23:40.327Z,0
2018-11-03T04:24:41.682Z,0
2018-11-03T04:25:43.032Z,0
2018-11-03T04:26:44.390Z,0
2018-11-03T04:27:45.747Z,0
2018-11-03T04:28:47.092Z,0
2018-11-03T04:29:48.444Z,0
2018-11-03T04:30:49.804Z,0
2018-11-03T04:31:51.153Z,0
2018-11-03T04:32:52.496Z,0
2018-11-03T04:33:53.852Z,0
2018-11-03T04:34:55.166Z,0
2018-11-03T04:35:56.511Z,0
2018-11-03T04:36:57.856Z,0
2018-11-03T04:37:59.215Z,0
2018-11-03T04:39:00.562Z,0
2018-11-03T04:40:01.915Z,0
2018-11-03T04:41:03.265Z,0
2018-11-03T04:42:04.626Z,0
2018-11-03T04:43:05.972Z,0
2018-11-03T04:44:07.329Z,0
2018-11-03T04:45:08.727Z,0
2018-11-03T04:46:10.031Z,0
2018-11-03T04:47:11.346Z,0
2018-11-03T04:48:12.697Z,0
2018-11-03T04:49:14.040Z,0
2018-11-03T04:50:15.396Z,0
2018-11-03T04:51:16.762Z,0
2018-11-03T04:52:18.117Z,0
2018-11-03T04:53:19.466Z,0
2018-11-03T04:54:20.820Z,0
2018-11-03T04:55:22.333Z,0
2018-11-03T04:56:23.633Z,0
2018-11-03T04:57:24.960Z,0
2018-11-03T04:58:26.321Z,0
2018-11-03T04:59:27.711Z,0
2018-11-03T05:00:29.021Z,0
2018-11-03T05:01:30.383Z,0
2018-11-03T05:02:31.726Z,0
2018-11-03T05:03:33.079Z,0
2018-11-03T05:04:34.420Z,0
2018-11-03T05:05:35.785Z,0
2018-11-03T05:06:37.136Z,0
2018-11-03T05:07:38.501Z,0
2018-11-03T05:08:39.856Z,0
2018-11-03T05:09:41.241Z,0
2018-11-03T05:10:42.566Z,0
2018-11-03T05:11:43.912Z,0
2018-11-03T05:12:45.272Z,0
2018-11-03T05:13:46.618Z,0
2018-11-03T05:14:47.957Z,0
2018-11-03T05:15:49.320Z,0
2018-11-03T05:16:50.661Z,0
2018-11-03T05:17:52.027Z,0
2018-11-03T05:18:53.386Z,0
2018-11-03T05:19:54.738Z,0
2018-11-03T05:20:56.085Z,0
2018-11-03T05:21:57.478Z,0
2018-11-03T05:22:58.830Z,0
2018-11-03T05:24:00.176Z,0
2018-11-03T05:25:01.532Z,0
2018-11-03T05:26:02.893Z,0
2018-11-03T05:27:04.237Z,0
2018-11-03T05:28:05.588Z,0
2018-11-03T05:29:06.944Z,0
2018-11-03T05:30:08.294Z,0
2018-11-03T05:31:09.702Z,0
2018-11-03T05:32:11.015Z,0
2018-11-03T05:33:12.361Z,0
2018-11-03T05:34:13.711Z,0
2018-11-03T05:35:15.056Z,0
2018-11-03T05:36:16.411Z,0
2018-11-03T05:37:17.752Z,0
2018-11-03T05:38:19.112Z,0
2018-11-03T05:39:20.423Z,0
2018-11-03T05:40:21.764Z,0
2018-11-03T05:41:23.129Z,0
2018-11-03T05:42:24.476Z,0
2018-11-03T05:43:25.832Z,0
2018-11-03T05:44:27.176Z,0
2018-11-03T05:45:28.538Z,0
2018-11-03T05:46:29.897Z,0
2018-11-03T05:47:31.202Z,0
2018-11-03T05:48:32.557Z,0
2018-11-03T05:49:33.906Z,0
2018-11-03T05:50:35.281Z,0
2018-11-03T05:51:36.604Z,0
2018-11-03T05:52:37.961Z,0
2018-11-03T05:53:39.315Z,0
2018-11-03T05:54:40.664Z,0
2018-11-03T05:55:42.023Z,0
2018-11-03T05:56:43.400Z,0
2018-11-03T05:57:44.725Z,0
2018-11-03T05:58:46.085Z,0
2018-11-03T05:59:47.395Z,0
2018-11-03T06:00:48.733Z,0
2018-11-03T06:01:50.096Z,0
2018-11-03T06:02:51.445Z,0
2018-11-03T06:03:52.798Z,0
2018-11-03T06:04:54.111Z,0
2018-11-03T06:05:55.468Z,5
2018-11-03T06:06:56.820Z,5
2018-11-03T06:07:58.174Z,5
2018-11-03T06:08:59.589Z,5
2018-11-03T06:10:00.847Z,5
2018-11-03T06:11:02.208Z,5
2018-11-03T06:12:03.562Z,11
2018-11-03T06:13:04.927Z,11
2018-11-03T06:14:06.311Z,11
2018-11-03T06:15:07.639Z,11
2018-11-03T06:16:08.988Z,16
2018-11-03T06:17:10.346Z,16
2018-11-03T06:18:11.658Z,16
2018-11-03T06:19:13.017Z,16
2018-11-03T06:20:14.369Z,22
2018-11-03T06:21:15.729Z,22
2018-11-03T06:22:17.101Z,22
2018-11-03T06:23:18.406Z,28
2018-11-03T06:24:19.752Z,28
2018-11-03T06:25:21.110Z,28
2018-11-03T06:26:22.459Z,33
2018-11-03T06:27:23.808Z,33
2018-11-03T06:28:25.181Z,39
2018-11-03T06:29:26.528Z,39
2018-11-03T06:30:27.883Z,45
2018-11-03T06:31:29.203Z,45
2018-11-03T06:32:30.590Z,50
2018-11-03T06:33:31.918Z,50
2018-11-03T06:34:33.262Z,56
2018-11-03T06:35:34.623Z,56
2018-11-03T06:36:35.982Z,61
2018-11-03T06:37:37.347Z,67
2018-11-03T06:38:38.699Z,67
2018-11-03T06:39:40.048Z,73
2018-11-03T06:40:41.407Z,73
2018-11-03T06:41:42.787Z,78
2018-11-03T06:42:44.127Z,78
2018-11-03T06:43:45.496Z,84
2018-11-03T06:44:46.851Z,90
2018-11-03T06:45:48.208Z,90
2018-11-03T06:46:49.554Z,95
2018-11-03T06:47:50.913Z,95
2018-11-03T06:48:52.281Z,101
2018-11-03T06:49:53.646Z,101
2018-11-03T06:50:55.007Z,101
2018-11-03T06:51:56.401Z,106
2018-11-03T06:52:57.707Z,106
2018-11-03T06:53:59.076Z,112
2018-11-03T06:55:00.421Z,112
2018-11-03T06:56:01.772Z,118
2018-11-03T06:57:03.131Z,118
2018-11-03T06:58:04.492Z,123
2018-11-03T06:59:05.853Z,123
2018-11-03T07:00:07.203Z,123
2018-11-03T07:01:08.569Z,123
2018-11-03T07:02:09.923Z,123
2018-11-03T07:03:11.273Z,129
2018-11-03T07:04:12.640Z,129
2018-11-03T07:05:14.106Z,135
2018-11-03T07:06:15.344Z,140
2018-11-03T07:07:16.748Z,140
2018-11-03T07:08:18.100Z,146
2018-11-03T07:09:19.482Z,146
2018-11-03T07:10:20.860Z,146
2018-11-03T07:11:22.236Z,151
2018-11-03T07:12:24.331Z,151
2018-11-03T07:13:25.723Z,151
2018-11-03T07:14:27.021Z,151
2018-11-03T07:15:28.379Z,151
2018-11-03T07:16:29.747Z,157
2018-11-03T07:17:31.139Z,157
2018-11-03T07:18:32.497Z,163
2018-11-03T07:19:33.888Z,168
2018-11-03T07:20:35.242Z,174
2018-11-03T07:21:36.694Z,168
2018-11-03T07:22:37.943Z,163
2018-11-03T07:23:39.308Z,163
2018-11-03T07:24:40.664Z,157
2018-11-03T07:25:42.028Z,163
2018-11-03T07:26:43.396Z,163
2018-11-03T07:27:44.751Z,168
2018-11-03T07:28:46.108Z,168
2018-11-03T07:29:47.513Z,174
2018-11-03T07:30:52.172Z,174
2018-11-03T07:31:53.551Z,180
2018-11-03T07:32:54.904Z,180
2018-11-03T07:33:56.271Z,185
2018-11-03T07:34:57.652Z,196
2018-11-03T07:35:58.953Z,213
2018-11-03T07:37:00.308Z,219
2018-11-03T07:38:01.668Z,213
2018-11-03T07:39:03.026Z,225
2018-11-03T07:40:04.384Z,236
2018-11-03T07:41:05.877Z,258
2018-11-03T07:42:07.073Z,281
2018-11-03T07:43:08.428Z,405
2018-11-03T07:44:09.788Z,483
2018-11-03T07:45:11.140Z,489
2018-11-03T07:46:12.509Z,489
2018-11-03T07:47:13.828Z,500
2018-11-03T07:48:15.235Z,511
2018-11-03T07:49:16.641Z,511
2018-11-03T07:50:17.844Z,511
2018-11-03T07:51:19.217Z,495
2018-11-03T07:52:20.569Z,495
2018-11-03T07:53:21.927Z,500
2018-11-03T07:54:23.320Z,517
2018-11-03T07:55:24.636Z,523
2018-11-03T07:56:26.035Z,528
2018-11-03T07:57:27.394Z,540
2018-11-03T07:58:28.792Z,540
2018-11-03T07:59:30.149Z,551
2018-11-03T08:00:31.593Z,540
2018-11-03T08:01:32.863Z,545
2018-11-03T08:02:34.232Z,551
2018-11-03T08:03:35.601Z,562
2018-11-03T08:04:37.537Z,568
2018-11-03T08:05:38.913Z,562
2018-11-03T08:06:40.314Z,568
2018-11-03T08:07:41.706Z,568
2018-11-03T08:08:43.088Z,568
2018-11-03T08:09:44.452Z,579
2018-11-03T08:10:45.823Z,590
2018-11-03T08:11:47.144Z,585
2018-11-03T08:12:48.508Z,579
2018-11-03T08:13:49.874Z,585
2018-11-03T08:14:51.243Z,596
2018-11-03T08:15:52.715Z,607
2018-11-03T08:16:53.945Z,613
2018-11-03T08:17:55.301Z,630
2018-11-03T08:18:56.667Z,658
2018-11-03T08:19:58.906Z,691
2018-11-03T08:21:00.271Z,691
2018-11-03T08:22:01.634Z,675
2018-11-03T08:23:03.009Z,652
2018-11-03T08:24:04.488Z,635
2018-11-03T08:25:05.714Z,652
2018-11-03T08:26:07.091Z,669
2018-11-03T08:27:08.448Z,675
2018-11-03T08:28:09.797Z,697
2018-11-03T08:29:12.215Z,714
2018-11-03T08:30:13.533Z,742
2018-11-03T08:31:14.942Z,770
2018-11-03T08:32:16.307Z,776
2018-11-03T08:33:17.715Z,804
2018-11-03T08:34:19.034Z,821
2018-11-03T08:35:20.399Z,821
2018-11-03T08:36:21.764Z,810
2018-11-03T08:37:23.129Z,776
2018-11-03T08:38:24.455Z,776
2018-11-03T08:39:25.853Z,770
2018-11-03T08:40:27.168Z,753
2018-11-03T08:41:28.542Z,787
2018-11-03T08:42:29.907Z,821
2018-11-03T08:43:31.268Z,860
2018-11-03T08:44:32.640Z,871
2018-11-03T08:45:34.010Z,826
2018-11-03T08:46:35.388Z,821
2018-11-03T08:47:36.765Z,855
2018-11-03T08:48:38.163Z,900
2018-11-03T08:49:39.504Z,922
2018-11-03T08:50:40.880Z,928
2018-11-03T08:51:42.208Z,894
2018-11-03T08:52:43.609Z,877
2018-11-03T08:53:44.945Z,877
2018-11-03T08:54:46.315Z,928
2018-11-03T08:55:47.694Z,967
2018-11-03T08:56:49.060Z,984
2018-11-03T08:57:50.434Z,990
2018-11-03T08:58:51.823Z,978
2018-11-03T08:59:53.325Z,1029
2018-11-03T09:00:54.558Z,1164
2018-11-03T09:01:55.943Z,1237
2018-11-03T09:02:57.313Z,1299
2018-11-03T09:03:58.712Z,1321
2018-11-03T09:05:00.038Z,1383
2018-11-03T09:06:01.410Z,1406
2018-11-03T09:07:02.866Z,1395
2018-11-03T09:08:04.171Z,1378
2018-11-03T09:09:05.542Z,1383
2018-11-03T09:10:06.913Z,1411
2018-11-03T09:11:08.268Z,1361
2018-11-03T09:12:09.653Z,1333
2018-11-03T09:13:11.029Z,1226
2018-11-03T09:14:12.412Z,1080
2018-11-03T09:15:13.827Z,973
2018-11-03T09:16:15.134Z,883
2018-11-03T09:17:16.489Z,832
2018-11-03T09:18:17.849Z,826
2018-11-03T09:19:19.228Z,810
2018-11-03T09:20:20.595Z,832
2018-11-03T09:21:21.979Z,815
2018-11-03T09:22:23.408Z,793
2018-11-03T09:23:24.729Z,781
2018-11-03T09:24:26.105Z,781
2018-11-03T09:25:27.470Z,770
2018-11-03T09:26:28.842Z,725
2018-11-03T09:27:30.231Z,714
2018-11-03T09:28:31.598Z,708
2018-11-03T09:29:32.969Z,708
2018-11-03T09:30:34.348Z,708
2018-11-03T09:31:35.726Z,680
2018-11-03T09:32:37.129Z,658
2018-11-03T09:33:38.508Z,663
2018-11-03T09:34:39.987Z,675
2018-11-03T09:35:41.255Z,691
2018-11-03T09:36:42.634Z,669
2018-11-03T09:37:44.009Z,635
2018-11-03T09:38:45.560Z,646
2018-11-03T09:39:46.740Z,658
2018-11-03T09:40:48.111Z,635
2018-11-03T09:41:49.485Z,658
2018-11-03T09:42:50.867Z,646
2018-11-03T09:43:52.252Z,646
2018-11-03T09:44:53.647Z,444
2018-11-03T09:45:54.988Z,438
2018-11-03T09:46:56.377Z,450
2018-11-03T09:47:57.744Z,500
2018-11-03T09:48:59.110Z,725
2018-11-03T09:50:00.508Z,618
2018-11-03T09:51:01.947Z,646
2018-11-03T09:52:03.275Z,590
2018-11-03T09:53:44.155Z,731
2018-11-03T09:54:45.545Z,646
2018-11-03T09:55:46.894Z,630
2018-11-03T09:56:48.355Z,753
2018-11-03T09:57:49.601Z,708
2018-11-03T09:58:50.965Z,748
2018-11-03T09:59:52.330Z,748
2018-11-03T10:00:53.724Z,753
2018-11-03T10:01:55.097Z,742
2018-11-03T10:02:56.483Z,742
2018-11-03T10:03:57.856Z,736
2018-11-03T10:04:59.230Z,748
2018-11-03T10:06:00.615Z,765
2018-11-03T10:07:02.004Z,781
2018-11-03T10:08:03.381Z,793
2018-11-03T10:09:04.769Z,810
2018-11-03T10:10:06.111Z,826
2018-11-03T10:11:07.498Z,826
2018-11-03T10:12:08.881Z,894
2018-11-03T10:13:10.250Z,978
2018-11-03T10:14:11.625Z,1119
2018-11-03T10:15:13.010Z,1288
2018-11-03T10:16:14.380Z,1563
2018-11-03T10:17:15.751Z,1850
2018-11-03T10:18:17.119Z,2289
2018-11-03T10:19:18.452Z,2660
2018-11-03T10:20:19.829Z,2896
2018-11-03T10:21:21.215Z,2992
2018-11-03T10:22:22.660Z,3037
2018-11-03T10:23:23.963Z,2846
2018-11-03T10:24:25.339Z,2598
2018-11-03T10:25:26.739Z,2334
2018-11-03T10:26:28.119Z,2075
2018-11-03T10:27:29.476Z,1861
2018-11-03T10:28:30.855Z,1783
2018-11-03T10:29:32.231Z,1800
2018-11-03T10:30:33.605Z,1771
2018-11-03T10:31:34.977Z,1642
2018-11-03T10:32:36.365Z,1653
2018-11-03T10:33:37.773Z,1676
2018-11-03T10:34:39.120Z,1693
2018-11-03T10:35:40.464Z,1636
2018-11-03T10:36:41.841Z,1603
2018-11-03T10:37:43.225Z,1518
2018-11-03T10:38:44.594Z,1445
2018-11-03T10:39:45.964Z,1417
2018-11-03T10:40:47.384Z,1530
2018-11-03T10:41:48.739Z,1620
2018-11-03T10:42:50.105Z,1226
2018-11-03T10:43:51.471Z,855
2018-11-03T10:44:52.845Z,770
2018-11-03T10:45:54.185Z,736
2018-11-03T10:46:55.566Z,703
2018-11-03T10:47:56.947Z,708
2018-11-03T10:48:58.329Z,731
2018-11-03T10:49:59.729Z,736
2018-11-03T10:51:01.076Z,731
2018-11-03T10:52:02.444Z,708
2018-11-03T10:53:03.814Z,714
2018-11-03T10:54:05.195Z,697
2018-11-03T10:55:07.420Z,708
2018-11-03T10:56:08.800Z,714
2018-11-03T10:57:10.171Z,686
2018-11-03T10:58:11.566Z,686
2018-11-03T10:59:12.894Z,686
2018-11-03T11:00:14.255Z,675
2018-11-03T11:01:15.641Z,669
2018-11-03T11:02:17.000Z,697
2018-11-03T11:03:18.436Z,686
2018-11-03T11:04:19.717Z,680
2018-11-03T11:05:21.095Z,669
2018-11-03T11:06:22.471Z,590
2018-11-03T11:07:23.841Z,551
2018-11-03T11:08:25.239Z,517
2018-11-03T11:09:26.605Z,523
2018-11-03T11:10:27.974Z,568
2018-11-03T11:11:29.350Z,551
2018-11-03T11:12:30.679Z,568
2018-11-03T11:13:32.049Z,579
2018-11-03T11:14:33.416Z,596
2018-11-03T11:15:34.814Z,646
2018-11-03T11:16:36.192Z,630
2018-11-03T11:17:37.504Z,675
2018-11-03T11:18:38.885Z,680
2018-11-03T11:19:40.253Z,714
2018-11-03T11:20:41.629Z,759
2018-11-03T11:21:43.051Z,776
2018-11-03T11:22:44.418Z,703
2018-11-03T11:23:45.820Z,708
2018-11-03T11:24:47.204Z,725
2018-11-03T11:25:48.551Z,742
2018-11-03T11:26:49.919Z,748
2018-11-03T11:27:51.288Z,765
2018-11-03T11:28:52.769Z,900
2018-11-03T11:29:54.119Z,1051
2018-11-03T11:30:55.491Z,815
2018-11-03T11:31:56.880Z,888
2018-11-03T11:32:58.240Z,1085
2018-11-03T11:33:59.621Z,1001
2018-11-03T11:35:00.998Z,804
2018-11-03T11:36:02.391Z,843
2018-11-03T11:37:03.730Z,950
2018-11-03T11:38:05.065Z,770
2018-11-03T11:39:06.456Z,810
2018-11-03T11:40:07.835Z,956
2018-11-03T11:41:09.760Z,804
2018-11-03T11:42:10.541Z,742
2018-11-03T11:43:12.042Z,714
2018-11-03T11:44:13.255Z,776
2018-11-03T11:45:14.631Z,742
2018-11-03T11:46:16.083Z,742
2018-11-03T11:47:17.336Z,759
2018-11-03T11:48:18.710Z,765
2018-11-03T11:49:20.075Z,725
2018-11-03T11:50:21.452Z,798
2018-11-03T11:51:22.776Z,708
2018-11-03T11:52:24.158Z,686
2018-11-03T11:53:25.530Z,720
2018-11-03T11:54:26.899Z,646
2018-11-03T11:55:28.281Z,658
2018-11-03T11:56:29.669Z,663
2018-11-03T11:57:31.046Z,691
2018-11-03T11:58:32.411Z,731
2018-11-03T11:59:33.786Z,697
2018-11-03T12:00:35.195Z,691
2018-11-03T12:01:36.490Z,669
2018-11-03T12:02:37.924Z,652
2018-11-03T12:03:39.233Z,658
2018-11-03T12:04:40.633Z,652
2018-11-03T12:05:41.991Z,646
2018-11-03T12:06:43.374Z,646
2018-11-03T12:07:44.742Z,652
2018-11-03T12:08:46.125Z,630
2018-11-03T12:09:47.508Z,635
2018-11-03T12:10:48.862Z,618
2018-11-03T12:11:50.256Z,641
2018-11-03T12:12:51.606Z,658
2018-11-03T12:13:52.982Z,641
2018-11-03T12:14:54.357Z,624
2018-11-03T12:15:55.720Z,618
2018-11-03T12:16:57.075Z,630
2018-11-03T12:17:58.459Z,652
2018-11-03T12:18:59.883Z,697
2018-11-03T12:20:01.202Z,691
2018-11-03T12:21:02.588Z,720
2018-11-03T12:22:03.960Z,776
2018-11-03T12:23:05.325Z,1254
2018-11-03T12:24:06.695Z,916
2018-11-03T12:25:08.055Z,1265
2018-11-03T12:26:09.418Z,815
2018-11-03T12:27:10.801Z,877
2018-11-03T12:28:12.161Z,911
2018-11-03T12:29:13.495Z,905
2018-11-03T12:30:14.873Z,821
2018-11-03T12:31:16.276Z,810
2018-11-03T12:32:17.643Z,759
2018-11-03T12:33:19.016Z,838
2018-11-03T12:34:20.430Z,804
2018-11-03T12:35:21.832Z,714
2018-11-03T12:36:23.179Z,703
2018-11-03T12:37:24.545Z,759
2018-11-03T12:38:25.918Z,759
2018-11-03T12:39:27.297Z,781
2018-11-03T12:40:28.678Z,933
2018-11-03T12:41:30.026Z,1231
2018-11-03T12:42:31.385Z,905
2018-11-03T12:43:32.767Z,1530
2018-11-03T12:44:34.139Z,798
2018-11-03T12:45:35.502Z,714
2018-11-03T12:46:36.872Z,736
2018-11-03T12:47:38.268Z,748
2018-11-03T12:48:39.647Z,720
2018-11-03T12:49:41.024Z,1355
2018-11-03T12:50:42.397Z,781
2018-11-03T12:51:43.773Z,624
2018-11-03T12:52:45.151Z,601
2018-11-03T12:53:46.513Z,630
2018-11-03T12:54:47.891Z,697
2018-11-03T12:55:49.268Z,1096
2018-11-03T12:56:50.672Z,686
2018-11-03T12:57:52.053Z,663
2018-11-03T12:58:53.433Z,635
2018-11-03T12:59:54.840Z,613
2018-11-03T13:00:56.192Z,759
2018-11-03T13:01:57.585Z,708
2018-11-03T13:02:58.956Z,703
2018-11-03T13:04:00.321Z,928
2018-11-03T13:05:01.769Z,956
2018-11-03T13:06:03.070Z,826
2018-11-03T13:07:04.458Z,894
2018-11-03T13:08:05.841Z,832
2018-11-03T13:09:07.208Z,635
2018-11-03T13:10:08.588Z,663
2018-11-03T13:11:09.967Z,534
2018-11-03T13:12:14.912Z,500
2018-11-03T13:13:16.234Z,483
2018-11-03T13:14:17.672Z,466
2018-11-03T13:15:19.038Z,455
2018-11-03T13:16:20.422Z,455
2018-11-03T13:17:21.788Z,461
2018-11-03T13:18:23.156Z,466
2018-11-03T13:19:24.537Z,478
2018-11-03T13:20:25.915Z,489
2018-11-03T13:21:27.300Z,489
2018-11-03T13:22:28.673Z,478
2018-11-03T13:23:30.048Z,472
2018-11-03T13:24:31.415Z,472
2018-11-03T13:25:32.792Z,478
2018-11-03T13:26:34.162Z,472
2018-11-03T13:27:35.541Z,455
2018-11-03T13:28:36.908Z,444
2018-11-03T13:29:38.321Z,433
2018-11-03T13:30:39.695Z,427
2018-11-03T13:31:41.052Z,427
2018-11-03T13:32:42.446Z,427
2018-11-03T13:33:43.834Z,421
2018-11-03T13:34:45.222Z,421
2018-11-03T13:35:46.546Z,427
2018-11-03T13:36:47.920Z,433
2018-11-03T13:37:49.283Z,433
2018-11-03T13:38:50.660Z,438
2018-11-03T13:39:52.031Z,438
2018-11-03T13:40:53.464Z,433
2018-11-03T13:41:54.751Z,427
2018-11-03T13:42:56.130Z,410
2018-11-03T13:43:57.509Z,393
2018-11-03T13:44:58.877Z,376
2018-11-03T13:46:00.240Z,365
2018-11-03T13:47:01.645Z,365
2018-11-03T13:48:03.003Z,360
2018-11-03T13:49:04.379Z,354
2018-11-03T13:50:05.748Z,348
2018-11-03T13:51:07.135Z,343
2018-11-03T13:52:08.508Z,337
2018-11-03T13:53:09.911Z,331
2018-11-03T13:54:11.287Z,331
2018-11-03T13:55:12.652Z,337
2018-11-03T13:56:14.022Z,348
2018-11-03T13:57:15.392Z,354
2018-11-03T13:58:16.761Z,360
2018-11-03T13:59:18.135Z,360
2018-11-03T14:00:19.502Z,354
2018-11-03T14:01:20.882Z,348
2018-11-03T14:02:22.247Z,343
2018-11-03T14:03:23.627Z,331
2018-11-03T14:04:25.018Z,320
2018-11-03T14:05:26.390Z,303
2018-11-03T14:06:27.777Z,292
2018-11-03T14:07:29.235Z,286
2018-11-03T14:08:30.601Z,281
2018-11-03T14:09:31.978Z,270
2018-11-03T14:10:33.357Z,258
2018-11-03T14:11:34.739Z,247
2018-11-03T14:12:36.104Z,241
2018-11-03T14:13:37.480Z,236
2018-11-03T14:14:38.870Z,247
2018-11-03T14:15:40.299Z,247
2018-11-03T14:16:41.577Z,247
2018-11-03T14:17:42.943Z,247
2018-11-03T14:18:44.316Z,241
2018-11-03T14:19:45.683Z,241
2018-11-03T14:20:47.063Z,241
2018-11-03T14:21:48.431Z,247
2018-11-03T14:22:49.801Z,253
2018-11-03T14:23:51.163Z,264
2018-11-03T14:24:52.560Z,270
2018-11-03T14:26:07.002Z,275
2018-11-03T14:27:08.378Z,286
2018-11-03T14:28:09.796Z,281
2018-11-03T14:29:11.272Z,281
2018-11-03T14:30:12.501Z,275
2018-11-03T14:31:13.865Z,275
2018-11-03T14:32:15.243Z,275